KBNO/BNO METAR and TAF weather

Enter ICAO airport designator
Station Type Date Time Source
KBNO METAR 2019/08/22 15:53 UTC NOAA

KBNO 221553Z AUTO 31008KT 10SM CLR 17/11 A3006 RMK AO2 SLP150 T01720106


Station Type Date Time Source
KBNO Decoded METAR 2019/08/22 15:53 UTC NOAA

Station name not available
Aug 22, 2019 - 11:53 AM EDT / 2019.08.22 1553 UTC
Wind: from the NW (310 degrees) at 9 MPH (8 KT):0
Visibility: 10 mile(s):0
Sky conditions: clear
Temperature: 63.0 F (17.2 C)
Dew Point: 51.1 F (10.6 C)
Relative Humidity: 65%
Pressure (altimeter): 30.06 in. Hg (1017 hPa)
ob: KBNO 221553Z AUTO 31008KT 10SM CLR 17/11 A3006 RMK AO2 SLP150 T01720106
cycle: 16

Station Type Date Time Source
KBNO TAF 2019/08/22 12:22 UTC NOAA

TAF KBNO 221120Z 2212/2312 26008KT P6SM FEW050
FM230200 VRB04KT P6SM SKC

Example: see airport list